sensor_id;sensor_type;location;lat;lon;timestamp;pressure;altitude;pressure_sealevel;temperature;humidity
21109;BME280;10712;52.944;9.098;2023-04-21T00:01:03;101772.69;;;16.43;53.88
21109;BME280;10712;52.944;9.098;2023-04-21T00:03:33;101778.63;;;16.48;53.87
21109;BME280;10712;52.944;9.098;2023-04-21T00:06:04;101771.50;;;16.47;54.05
21109;BME280;10712;52.944;9.098;2023-04-21T00:08:34;101775.63;;;16.53;54.14
21109;BME280;10712;52.944;9.098;2023-04-21T00:11:07;101778.03;;;16.58;54.22
21109;BME280;10712;52.944;9.098;2023-04-21T00:13:34;101773.16;;;16.50;54.43
21109;BME280;10712;52.944;9.098;2023-04-21T00:16:02;101767.16;;;16.59;54.37
21109;BME280;10712;52.944;9.098;2023-04-21T00:18:27;101758.91;;;16.62;54.13
21109;BME280;10712;52.944;9.098;2023-04-21T00:20:53;101764.38;;;16.61;54.06
21109;BME280;10712;52.944;9.098;2023-04-21T00:23:19;101759.56;;;16.66;53.93
21109;BME280;10712;52.944;9.098;2023-04-21T00:25:45;101753.63;;;16.61;53.84
21109;BME280;10712;52.944;9.098;2023-04-21T00:28:11;101751.13;;;16.58;53.63
21109;BME280;10712;52.944;9.098;2023-04-21T00:30:37;101746.78;;;16.55;53.64
21109;BME280;10712;52.944;9.098;2023-04-21T00:33:03;101748.34;;;16.59;53.34
21109;BME280;10712;52.944;9.098;2023-04-21T00:35:29;101744.97;;;16.55;53.19
21109;BME280;10712;52.944;9.098;2023-04-21T00:37:55;101757.09;;;16.48;53.14
21109;BME280;10712;52.944;9.098;2023-04-21T00:40:21;101743.75;;;16.47;52.97
21109;BME280;10712;52.944;9.098;2023-04-21T00:42:47;101742.88;;;16.46;53.00
21109;BME280;10712;52.944;9.098;2023-04-21T00:45:12;101741.25;;;16.31;53.12
21109;BME280;10712;52.944;9.098;2023-04-21T00:47:40;101737.97;;;16.26;53.00
21109;BME280;10712;52.944;9.098;2023-04-21T00:50:08;101735.28;;;16.26;53.17
21109;BME280;10712;52.944;9.098;2023-04-21T00:52:39;101733.56;;;16.25;53.28
21109;BME280;10712;52.944;9.098;2023-04-21T00:55:07;101739.34;;;16.19;53.31
21109;BME280;10712;52.944;9.098;2023-04-21T00:57:35;101732.91;;;16.22;53.10
21109;BME280;10712;52.944;9.098;2023-04-21T01:00:04;101730.13;;;16.23;53.04
21109;BME280;10712;52.944;9.098;2023-04-21T01:02:33;101728.34;;;16.09;53.51
21109;BME280;10712;52.944;9.098;2023-04-21T01:04:59;101727.16;;;16.13;53.29
21109;BME280;10712;52.944;9.098;2023-04-21T01:07:25;101732.47;;;16.15;53.20
21109;BME280;10712;52.944;9.098;2023-04-21T01:09:51;101725.56;;;16.11;53.17
21109;BME280;10712;52.944;9.098;2023-04-21T01:12:17;101731.91;;;16.10;53.44
21109;BME280;10712;52.944;9.098;2023-04-21T01:14:43;101719.97;;;16.14;53.08
21109;BME280;10712;52.944;9.098;2023-04-21T01:17:09;101715.78;;;16.10;53.13
21109;BME280;10712;52.944;9.098;2023-04-21T01:19:41;101720.19;;;16.11;53.24
21109;BME280;10712;52.944;9.098;2023-04-21T01:22:09;101712.88;;;16.13;53.05
21109;BME280;10712;52.944;9.098;2023-04-21T01:24:46;101705.97;;;16.09;53.33
21109;BME280;10712;52.944;9.098;2023-04-21T01:27:19;101705.97;;;16.09;53.05
21109;BME280;10712;52.944;9.098;2023-04-21T01:29:50;101708.75;;;16.07;53.13
21109;BME280;10712;52.944;9.098;2023-04-21T01:32:20;101704.28;;;15.94;53.09
21109;BME280;10712;52.944;9.098;2023-04-21T01:34:48;101704.84;;;15.99;53.18
21109;BME280;10712;52.944;9.098;2023-04-21T01:37:18;101701.41;;;15.97;53.07
21109;BME280;10712;52.944;9.098;2023-04-21T01:39:49;101697.75;;;15.98;53.15
21109;BME280;10712;52.944;9.098;2023-04-21T01:42:21;101693.84;;;15.89;53.12
21109;BME280;10712;52.944;9.098;2023-04-21T01:44:47;101699.31;;;15.88;53.14
21109;BME280;10712;52.944;9.098;2023-04-21T01:47:16;101686.06;;;15.85;53.10
21109;BME280;10712;52.944;9.098;2023-04-21T01:49:42;101687.66;;;15.74;53.33
21109;BME280;10712;52.944;9.098;2023-04-21T01:52:08;101692.94;;;15.76;53.44
21109;BME280;10712;52.944;9.098;2023-04-21T01:54:34;101689.94;;;15.81;53.64
21109;BME280;10712;52.944;9.098;2023-04-21T01:57:00;101693.03;;;15.74;53.42
21109;BME280;10712;52.944;9.098;2023-04-21T01:59:27;101688.59;;;15.73;53.53
21109;BME280;10712;52.944;9.098;2023-04-21T02:01:52;101700.22;;;15.74;53.33
21109;BME280;10712;52.944;9.098;2023-04-21T02:04:18;101688.31;;;15.64;53.40
21109;BME280;10712;52.944;9.098;2023-04-21T02:06:44;101701.25;;;15.71;53.33
21109;BME280;10712;52.944;9.098;2023-04-21T02:09:10;101697.34;;;15.63;53.43
21109;BME280;10712;52.944;9.098;2023-04-21T02:11:36;101701.66;;;15.65;53.31
21109;BME280;10712;52.944;9.098;2023-04-21T02:14:02;101697.84;;;15.69;53.36
21109;BME280;10712;52.944;9.098;2023-04-21T02:16:28;101694.38;;;15.67;53.36
21109;BME280;10712;52.944;9.098;2023-04-21T02:18:55;101700.53;;;15.69;53.27
21109;BME280;10712;52.944;9.098;2023-04-21T02:21:22;101698.66;;;15.70;53.25
21109;BME280;10712;52.944;9.098;2023-04-21T02:23:50;101704.91;;;15.70;53.24
21109;BME280;10712;52.944;9.098;2023-04-21T02:26:16;101706.84;;;15.68;53.20
21109;BME280;10712;52.944;9.098;2023-04-21T02:28:42;101692.47;;;15.69;53.40
21109;BME280;10712;52.944;9.098;2023-04-21T02:31:08;101703.22;;;15.69;53.31
21109;BME280;10712;52.944;9.098;2023-04-21T02:33:34;101694.56;;;15.64;53.08
21109;BME280;10712;52.944;9.098;2023-04-21T02:36:00;101699.38;;;15.59;53.11
21109;BME280;10712;52.944;9.098;2023-04-21T02:38:26;101687.84;;;15.57;53.28
21109;BME280;10712;52.944;9.098;2023-04-21T02:40:52;101690.34;;;15.60;53.21
21109;BME280;10712;52.944;9.098;2023-04-21T02:43:18;101691.31;;;15.59;53.21
21109;BME280;10712;52.944;9.098;2023-04-21T02:45:44;101695.91;;;15.57;53.31
21109;BME280;10712;52.944;9.098;2023-04-21T02:48:11;101689.41;;;15.61;53.33
21109;BME280;10712;52.944;9.098;2023-04-21T02:50:37;101680.38;;;15.62;53.32
21109;BME280;10712;52.944;9.098;2023-04-21T02:53:03;101694.78;;;15.61;53.19
21109;BME280;10712;52.944;9.098;2023-04-21T02:55:28;101691.13;;;15.62;53.14
21109;BME280;10712;52.944;9.098;2023-04-21T02:57:54;101689.19;;;15.64;53.20
21109;BME280;10712;52.944;9.098;2023-04-21T03:00:22;101689.00;;;15.67;53.29
21109;BME280;10712;52.944;9.098;2023-04-21T03:02:48;101688.22;;;15.65;53.21
21109;BME280;10712;52.944;9.098;2023-04-21T03:05:15;101687.28;;;15.66;53.24
21109;BME280;10712;52.944;9.098;2023-04-21T03:07:44;101680.16;;;15.65;53.23
21109;BME280;10712;52.944;9.098;2023-04-21T03:10:10;101685.38;;;15.68;53.25
21109;BME280;10712;52.944;9.098;2023-04-21T03:12:36;101684.28;;;15.71;53.11
21109;BME280;10712;52.944;9.098;2023-04-21T03:15:03;101681.91;;;15.66;53.06
21109;BME280;10712;52.944;9.098;2023-04-21T03:17:29;101690.28;;;15.62;53.28
21109;BME280;10712;52.944;9.098;2023-04-21T03:19:55;101683.94;;;15.49;53.67
21109;BME280;10712;52.944;9.098;2023-04-21T03:22:21;101684.03;;;15.33;54.02
21109;BME280;10712;52.944;9.098;2023-04-21T03:24:47;101676.94;;;15.04;54.94
21109;BME280;10712;52.944;9.098;2023-04-21T03:27:12;101674.63;;;14.97;55.31
21109;BME280;10712;52.944;9.098;2023-04-21T03:29:38;101676.94;;;15.04;55.26
21109;BME280;10712;52.944;9.098;2023-04-21T03:32:04;101683.94;;;15.06;55.31
21109;BME280;10712;52.944;9.098;2023-04-21T03:34:30;101680.19;;;15.09;55.33
21109;BME280;10712;52.944;9.098;2023-04-21T03:36:58;101684.69;;;15.08;55.19
21109;BME280;10712;52.944;9.098;2023-04-21T03:39:23;101683.81;;;15.08;55.36
21109;BME280;10712;52.944;9.098;2023-04-21T03:41:51;101689.19;;;15.08;55.32
21109;BME280;10712;52.944;9.098;2023-04-21T03:44:16;101683.81;;;15.50;54.22
21109;BME280;10712;52.944;9.098;2023-04-21T03:46:42;101688.44;;;15.62;53.64
21109;BME280;10712;52.944;9.098;2023-04-21T03:49:08;101682.88;;;15.65;53.37
21109;BME280;10712;52.944;9.098;2023-04-21T03:51:34;101685.53;;;15.65;53.33
21109;BME280;10712;52.944;9.098;2023-04-21T03:53:59;101696.50;;;15.62;53.44
21109;BME280;10712;52.944;9.098;2023-04-21T03:56:25;101689.41;;;15.61;53.34
21109;BME280;10712;52.944;9.098;2023-04-21T03:58:51;101695.19;;;15.55;53.13
21109;BME280;10712;52.944;9.098;2023-04-21T04:01:17;101688.22;;;15.51;53.18
21109;BME280;10712;52.944;9.098;2023-04-21T04:03:43;101682.38;;;15.45;53.17
21109;BME280;10712;52.944;9.098;2023-04-21T04:06:09;101681.72;;;15.41;53.09
21109;BME280;10712;52.944;9.098;2023-04-21T04:08:35;101685.53;;;15.37;53.03
21109;BME280;10712;52.944;9.098;2023-04-21T04:11:01;101684.22;;;15.30;53.27
21109;BME280;10712;52.944;9.098;2023-04-21T04:13:26;101688.53;;;15.32;53.20
21109;BME280;10712;52.944;9.098;2023-04-21T04:15:53;101679.44;;;15.35;53.05
21109;BME280;10712;52.944;9.098;2023-04-21T04:18:20;101690.75;;;15.40;53.05
21109;BME280;10712;52.944;9.098;2023-04-21T04:20:46;101690.53;;;15.43;53.11
21109;BME280;10712;52.944;9.098;2023-04-21T04:23:12;101688.63;;;15.45;52.97
21109;BME280;10712;52.944;9.098;2023-04-21T04:25:37;101690.53;;;15.43;53.04
21109;BME280;10712;52.944;9.098;2023-04-21T04:28:04;101699.34;;;15.45;52.91
21109;BME280;10712;52.944;9.098;2023-04-21T04:30:30;101698.03;;;15.38;52.95
21109;BME280;10712;52.944;9.098;2023-04-21T04:32:57;101696.88;;;15.28;52.92
21109;BME280;10712;52.944;9.098;2023-04-21T04:35:23;101691.13;;;15.20;52.79
21109;BME280;10712;52.944;9.098;2023-04-21T04:37:49;101683.81;;;15.08;52.86
21109;BME280;10712;52.944;9.098;2023-04-21T04:40:15;101685.75;;;15.06;52.71
21109;BME280;10712;52.944;9.098;2023-04-21T04:42:41;101694.38;;;15.11;52.95
21109;BME280;10712;52.944;9.098;2023-04-21T04:45:08;101698.59;;;15.15;52.71
21109;BME280;10712;52.944;9.098;2023-04-21T04:47:34;101696.59;;;15.18;53.14
21109;BME280;10712;52.944;9.098;2023-04-21T04:50:00;101702.44;;;15.25;53.04
21109;BME280;10712;52.944;9.098;2023-04-21T04:52:26;101697.94;;;15.25;53.08
21109;BME280;10712;52.944;9.098;2023-04-21T04:54:51;101702.25;;;15.28;53.35
21109;BME280;10712;52.944;9.098;2023-04-21T04:57:17;101701.88;;;15.34;53.43
21109;BME280;10712;52.944;9.098;2023-04-21T04:59:43;101700.63;;;15.40;53.33
21109;BME280;10712;52.944;9.098;2023-04-21T05:02:09;101710.88;;;15.47;53.35
21109;BME280;10712;52.944;9.098;2023-04-21T05:04:35;101709.56;;;15.54;53.49
21109;BME280;10712;52.944;9.098;2023-04-21T05:07:01;101718.28;;;15.58;53.42
21109;BME280;10712;52.944;9.098;2023-04-21T05:09:27;101710.97;;;15.60;53.41
21109;BME280;10712;52.944;9.098;2023-04-21T05:11:53;101710.97;;;15.60;53.34
21109;BME280;10712;52.944;9.098;2023-04-21T05:14:18;101719.91;;;15.60;53.46
21109;BME280;10712;52.944;9.098;2023-04-21T05:16:44;101714.31;;;15.63;53.23
21109;BME280;10712;52.944;9.098;2023-04-21T05:19:10;101720.47;;;15.65;53.38
21109;BME280;10712;52.944;9.098;2023-04-21T05:21:36;101719.13;;;15.72;53.37
21109;BME280;10712;52.944;9.098;2023-04-21T05:24:02;101716.25;;;15.75;53.36
21109;BME280;10712;52.944;9.098;2023-04-21T05:26:28;101715.75;;;15.83;53.47
21109;BME280;10712;52.944;9.098;2023-04-21T05:28:55;101716.00;;;15.93;53.33
21109;BME280;10712;52.944;9.098;2023-04-21T05:31:25;101709.06;;;16.03;53.35
21109;BME280;10712;52.944;9.098;2023-04-21T05:33:51;101705.75;;;16.12;53.38
21109;BME280;10712;52.944;9.098;2023-04-21T05:36:17;101709.56;;;16.22;53.45
21109;BME280;10712;52.944;9.098;2023-04-21T05:38:44;101711.66;;;16.31;53.38
21109;BME280;10712;52.944;9.098;2023-04-21T05:41:11;101709.28;;;16.39;53.31
21109;BME280;10712;52.944;9.098;2023-04-21T05:43:37;101713.88;;;16.51;53.21
21109;BME280;10712;52.944;9.098;2023-04-21T05:46:09;101716.25;;;16.56;53.41
21109;BME280;10712;52.944;9.098;2023-04-21T05:48:35;101713.59;;;16.69;53.06
21109;BME280;10712;52.944;9.098;2023-04-21T05:51:12;101710.28;;;16.78;53.02
21109;BME280;10712;52.944;9.098;2023-04-21T05:53:41;101709.66;;;16.87;52.86
21109;BME280;10712;52.944;9.098;2023-04-21T05:56:10;101705.69;;;16.92;52.87
21109;BME280;10712;52.944;9.098;2023-04-21T05:58:37;101708.38;;;17.05;52.59
21109;BME280;10712;52.944;9.098;2023-04-21T06:01:04;101710.44;;;17.14;52.44
21109;BME280;10712;52.944;9.098;2023-04-21T06:03:31;101712.69;;;17.20;52.36
21109;BME280;10712;52.944;9.098;2023-04-21T06:06:01;101714.84;;;17.28;52.25
21109;BME280;10712;52.944;9.098;2023-04-21T06:08:26;101716.13;;;17.35;52.11
21109;BME280;10712;52.944;9.098;2023-04-21T06:10:52;101709.44;;;17.41;51.98
21109;BME280;10712;52.944;9.098;2023-04-21T06:13:18;101707.94;;;17.49;51.83
21109;BME280;10712;52.944;9.098;2023-04-21T06:15:44;101706.19;;;17.61;51.60
21109;BME280;10712;52.944;9.098;2023-04-21T06:18:10;101708.97;;;17.72;51.47
21109;BME280;10712;52.944;9.098;2023-04-21T06:20:35;101712.63;;;17.84;51.17
21109;BME280;10712;52.944;9.098;2023-04-21T06:23:01;101712.78;;;17.93;51.06
21109;BME280;10712;52.944;9.098;2023-04-21T06:25:27;101698.75;;;18.01;51.05
21109;BME280;10712;52.944;9.098;2023-04-21T06:27:53;101687.91;;;18.14;51.00
21109;BME280;10712;52.944;9.098;2023-04-21T06:30:18;101694.34;;;18.24;50.80
21109;BME280;10712;52.944;9.098;2023-04-21T06:32:44;101694.38;;;18.35;50.61
21109;BME280;10712;52.944;9.098;2023-04-21T06:35:12;101686.69;;;18.41;50.28
21109;BME280;10712;52.944;9.098;2023-04-21T06:37:42;101691.28;;;18.52;50.14
21109;BME280;10712;52.944;9.098;2023-04-21T06:40:08;101680.91;;;18.59;50.10
21109;BME280;10712;52.944;9.098;2023-04-21T06:42:34;101682.00;;;18.67;49.67
21109;BME280;10712;52.944;9.098;2023-04-21T06:45:00;101672.22;;;18.77;49.55
21109;BME280;10712;52.944;9.098;2023-04-21T06:47:25;101678.88;;;18.84;49.59
21109;BME280;10712;52.944;9.098;2023-04-21T06:49:51;101673.63;;;18.94;49.44
21109;BME280;10712;52.944;9.098;2023-04-21T06:52:17;101674.81;;;18.55;50.19
21109;BME280;10712;52.944;9.098;2023-04-21T06:54:43;101677.94;;;18.62;50.31
21109;BME280;10712;52.944;9.098;2023-04-21T06:57:09;101682.53;;;18.72;49.95
21109;BME280;10712;52.944;9.098;2023-04-21T06:59:35;101672.22;;;18.77;49.75
21109;BME280;10712;52.944;9.098;2023-04-21T07:02:00;101670.28;;;18.91;49.69
21109;BME280;10712;52.944;9.098;2023-04-21T07:04:26;101660.59;;;18.99;49.48
21109;BME280;10712;52.944;9.098;2023-04-21T07:06:54;101658.75;;;19.11;49.41
21109;BME280;10712;52.944;9.098;2023-04-21T07:09:21;101661.09;;;19.15;49.08
21109;BME280;10712;52.944;9.098;2023-04-21T07:11:47;101653.88;;;19.27;49.12
21109;BME280;10712;52.944;9.098;2023-04-21T07:14:12;101660.72;;;19.31;49.17
21109;BME280;10712;52.944;9.098;2023-04-21T07:16:38;101651.16;;;19.38;49.01
21109;BME280;10712;52.944;9.098;2023-04-21T07:19:04;101656.44;;;19.51;48.98
21109;BME280;10712;52.944;9.098;2023-04-21T07:21:30;101643.91;;;19.61;48.72
21109;BME280;10712;52.944;9.098;2023-04-21T07:23:57;101652.13;;;19.71;48.59
21109;BME280;10712;52.944;9.098;2023-04-21T07:26:23;101649.41;;;19.82;48.46
21109;BME280;10712;52.944;9.098;2023-04-21T07:28:49;101654.63;;;19.94;48.25
21109;BME280;10712;52.944;9.098;2023-04-21T07:31:17;101647.84;;;20.00;48.14
21109;BME280;10712;52.944;9.098;2023-04-21T07:33:43;101637.25;;;20.08;47.75
21109;BME280;10712;52.944;9.098;2023-04-21T07:36:08;101639.44;;;20.14;47.64
21109;BME280;10712;52.944;9.098;2023-04-21T07:38:34;101634.97;;;20.24;47.04
21109;BME280;10712;52.944;9.098;2023-04-21T07:41:00;101638.63;;;20.34;46.82
21109;BME280;10712;52.944;9.098;2023-04-21T07:43:26;101640.31;;;20.47;47.11
21109;BME280;10712;52.944;9.098;2023-04-21T07:45:51;101648.09;;;20.61;47.02
21109;BME280;10712;52.944;9.098;2023-04-21T07:48:18;101646.56;;;20.68;46.80
21109;BME280;10712;52.944;9.098;2023-04-21T07:50:44;101640.13;;;20.80;46.55
21109;BME280;10712;52.944;9.098;2023-04-21T07:53:09;101642.00;;;20.89;46.67
21109;BME280;10712;52.944;9.098;2023-04-21T07:55:35;101636.66;;;20.99;46.27
21109;BME280;10712;52.944;9.098;2023-04-21T07:58:03;101637.69;;;21.07;45.94
21109;BME280;10712;52.944;9.098;2023-04-21T08:00:29;101633.31;;;21.16;46.17
21109;BME280;10712;52.944;9.098;2023-04-21T08:02:55;101636.81;;;21.28;45.53
21109;BME280;10712;52.944;9.098;2023-04-21T08:05:21;101631.84;;;21.33;45.49
21109;BME280;10712;52.944;9.098;2023-04-21T08:07:47;101630.16;;;21.41;45.36
21109;BME280;10712;52.944;9.098;2023-04-21T08:10:12;101627.44;;;21.51;45.27
21109;BME280;10712;52.944;9.098;2023-04-21T08:12:38;101635.75;;;21.59;45.16
21109;BME280;10712;52.944;9.098;2023-04-21T08:15:05;101631.22;;;21.69;44.94
21109;BME280;10712;52.944;9.098;2023-04-21T08:17:33;101628.38;;;21.80;44.94
21109;BME280;10712;52.944;9.098;2023-04-21T08:20:01;101640.38;;;21.87;44.35
21109;BME280;10712;52.944;9.098;2023-04-21T08:22:26;101630.44;;;21.97;44.01
21109;BME280;10712;52.944;9.098;2023-04-21T08:24:52;101624.47;;;22.04;43.95
21109;BME280;10712;52.944;9.098;2023-04-21T08:27:18;101618.19;;;22.13;43.21
21109;BME280;10712;52.944;9.098;2023-04-21T08:29:44;101626.44;;;22.21;43.17
21109;BME280;10712;52.944;9.098;2023-04-21T08:32:09;101616.03;;;22.26;43.02
21109;BME280;10712;52.944;9.098;2023-04-21T08:34:35;101611.00;;;22.40;43.03
21109;BME280;10712;52.944;9.098;2023-04-21T08:37:01;101606.28;;;22.52;42.76
21109;BME280;10712;52.944;9.098;2023-04-21T08:39:28;101598.94;;;22.62;42.62
21109;BME280;10712;52.944;9.098;2023-04-21T08:41:54;101610.66;;;22.72;42.26
21109;BME280;10712;52.944;9.098;2023-04-21T08:44:21;101606.25;;;22.81;41.88
21109;BME280;10712;52.944;9.098;2023-04-21T08:46:49;101603.78;;;22.88;41.55
21109;BME280;10712;52.944;9.098;2023-04-21T08:49:19;101596.75;;;22.95;40.96
21109;BME280;10712;52.944;9.098;2023-04-21T08:51:46;101604.44;;;23.09;40.85
21109;BME280;10712;52.944;9.098;2023-04-21T08:54:12;101604.09;;;23.22;40.27
21109;BME280;10712;52.944;9.098;2023-04-21T08:56:38;101601.31;;;23.31;39.92
21109;BME280;10712;52.944;9.098;2023-04-21T08:59:05;101602.13;;;23.41;39.06
21109;BME280;10712;52.944;9.098;2023-04-21T09:01:31;101599.78;;;23.56;38.20
21109;BME280;10712;52.944;9.098;2023-04-21T09:04:16;101594.88;;;23.60;37.94
21109;BME280;10712;52.944;9.098;2023-04-21T09:06:42;101597.72;;;23.85;37.68
21109;BME280;10712;52.944;9.098;2023-04-21T09:09:08;101596.63;;;23.96;37.51
21109;BME280;10712;52.944;9.098;2023-04-21T09:11:34;101584.25;;;24.02;37.62
21109;BME280;10712;52.944;9.098;2023-04-21T09:13:59;101585.66;;;24.06;37.63
21109;BME280;10712;52.944;9.098;2023-04-21T09:16:30;101586.53;;;24.06;37.49
21109;BME280;10712;52.944;9.098;2023-04-21T09:18:59;101582.16;;;24.13;37.47
21109;BME280;10712;52.944;9.098;2023-04-21T09:21:29;101592.13;;;24.22;37.70
21109;BME280;10712;52.944;9.098;2023-04-21T09:23:56;101582.00;;;24.32;37.36
21109;BME280;10712;52.944;9.098;2023-04-21T09:26:22;101584.81;;;24.41;36.63
21109;BME280;10712;52.944;9.098;2023-04-21T09:28:50;101579.44;;;24.57;34.72
21109;BME280;10712;52.944;9.098;2023-04-21T09:31:22;101574.47;;;24.78;35.09
21109;BME280;10712;52.944;9.098;2023-04-21T09:33:56;101577.97;;;24.88;34.93
21109;BME280;10712;52.944;9.098;2023-04-21T09:36:25;101569.22;;;25.02;34.65
21109;BME280;10712;52.944;9.098;2023-04-21T09:39:01;101567.69;;;25.08;35.40
21109;BME280;10712;52.944;9.098;2023-04-21T09:41:27;101568.56;;;25.08;34.84
21109;BME280;10712;52.944;9.098;2023-04-21T09:43:53;101563.09;;;25.08;33.86
21109;BME280;10712;52.944;9.098;2023-04-21T09:46:19;101570.47;;;25.16;32.32
21109;BME280;10712;52.944;9.098;2023-04-21T09:48:47;101567.09;;;25.30;33.68
21109;BME280;10712;52.944;9.098;2023-04-21T09:51:15;101562.34;;;25.40;34.27
21109;BME280;10712;52.944;9.098;2023-04-21T09:53:44;101565.28;;;25.47;34.33
21109;BME280;10712;52.944;9.098;2023-04-21T09:56:15;101565.63;;;25.52;33.60
21109;BME280;10712;52.944;9.098;2023-04-21T09:58:52;101561.22;;;25.59;32.91
21109;BME280;10712;52.944;9.098;2023-04-21T10:01:19;101564.34;;;25.64;32.47
21109;BME280;10712;52.944;9.098;2023-04-21T10:03:47;101547.97;;;25.64;32.92
21109;BME280;10712;52.944;9.098;2023-04-21T10:06:14;101544.03;;;25.67;33.30
21109;BME280;10712;52.944;9.098;2023-04-21T10:08:40;101535.69;;;25.76;33.48
21109;BME280;10712;52.944;9.098;2023-04-21T10:11:07;101546.47;;;25.86;32.17
21109;BME280;10712;52.944;9.098;2023-04-21T10:13:34;101540.66;;;25.89;32.12
21109;BME280;10712;52.944;9.098;2023-04-21T10:16:09;101535.72;;;25.93;30.36
21109;BME280;10712;52.944;9.098;2023-04-21T10:18:37;101528.88;;;26.05;30.84
21109;BME280;10712;52.944;9.098;2023-04-21T10:21:16;101528.53;;;26.08;31.16
21109;BME280;10712;52.944;9.098;2023-04-21T10:23:47;101518.97;;;26.12;30.83
21109;BME280;10712;52.944;9.098;2023-04-21T10:26:21;101515.88;;;26.15;31.33
21109;BME280;10712;52.944;9.098;2023-04-21T10:29:07;101513.19;;;26.07;30.47
21109;BME280;10712;52.944;9.098;2023-04-21T10:39:08;101502.22;;;26.47;29.52
21109;BME280;10712;52.944;9.098;2023-04-21T10:41:37;101504.91;;;26.55;29.87
21109;BME280;10712;52.944;9.098;2023-04-21T10:46:48;101511.38;;;26.62;28.71
21109;BME280;10712;52.944;9.098;2023-04-21T10:49:23;101494.63;;;26.74;27.50
21109;BME280;10712;52.944;9.098;2023-04-21T10:54:29;101472.34;;;26.85;26.72
21109;BME280;10712;52.944;9.098;2023-04-21T10:56:58;101474.69;;;27.04;27.46
21109;BME280;10712;52.944;9.098;2023-04-21T10:59:25;101474.00;;;27.10;26.55
21109;BME280;10712;52.944;9.098;2023-04-21T11:01:51;101468.16;;;27.13;28.13
21109;BME280;10712;52.944;9.098;2023-04-21T11:04:20;101470.16;;;27.19;28.21
21109;BME280;10712;52.944;9.098;2023-04-21T11:07:11;101468.19;;;27.05;27.12
21109;BME280;10712;52.944;9.098;2023-04-21T11:09:40;101462.06;;;27.03;27.72
21109;BME280;10712;52.944;9.098;2023-04-21T11:12:12;101464.81;;;27.03;28.01
21109;BME280;10712;52.944;9.098;2023-04-21T11:14:42;101458.59;;;27.09;27.85
21109;BME280;10712;52.944;9.098;2023-04-21T11:17:17;101444.75;;;27.11;26.64
21109;BME280;10712;52.944;9.098;2023-04-21T11:20:02;101452.31;;;27.31;26.90
21109;BME280;10712;52.944;9.098;2023-04-21T11:22:29;101444.41;;;27.36;27.20
21109;BME280;10712;52.944;9.098;2023-04-21T11:24:56;101443.28;;;27.45;25.99
21109;BME280;10712;52.944;9.098;2023-04-21T11:27:26;101430.91;;;27.35;25.32
21109;BME280;10712;52.944;9.098;2023-04-21T11:29:52;101436.97;;;27.22;25.87
21109;BME280;10712;52.944;9.098;2023-04-21T11:32:18;101450.09;;;27.27;26.34
21109;BME280;10712;52.944;9.098;2023-04-21T11:34:44;101441.03;;;27.26;25.70
21109;BME280;10712;52.944;9.098;2023-04-21T11:37:15;101433.56;;;27.20;25.63
21109;BME280;10712;52.944;9.098;2023-04-21T11:39:42;101427.81;;;27.38;24.96
21109;BME280;10712;52.944;9.098;2023-04-21T11:42:09;101425.91;;;27.38;25.59
21109;BME280;10712;52.944;9.098;2023-04-21T11:44:39;101423.16;;;27.38;26.33
21109;BME280;10712;52.944;9.098;2023-04-21T11:49:48;101407.41;;;27.40;24.60
21109;BME280;10712;52.944;9.098;2023-04-21T11:52:30;101411.44;;;27.30;24.18
21109;BME280;10712;52.944;9.098;2023-04-21T11:55:11;101409.13;;;27.41;25.20
21109;BME280;10712;52.944;9.098;2023-04-21T11:57:39;101411.69;;;27.43;25.68
21109;BME280;10712;52.944;9.098;2023-04-21T12:00:08;101389.28;;;27.39;25.92
21109;BME280;10712;52.944;9.098;2023-04-21T12:02:36;101406.84;;;27.30;25.30
21109;BME280;10712;52.944;9.098;2023-04-21T12:05:10;101396.97;;;27.44;25.60
21109;BME280;10712;52.944;9.098;2023-04-21T12:07:46;101387.34;;;27.48;24.22
21109;BME280;10712;52.944;9.098;2023-04-21T12:10:17;101393.19;;;27.68;24.57
21109;BME280;10712;52.944;9.098;2023-04-21T12:12:44;101393.56;;;27.65;24.07
21109;BME280;10712;52.944;9.098;2023-04-21T12:15:16;101382.09;;;27.84;24.41
21109;BME280;10712;52.944;9.098;2023-04-21T12:17:45;101382.94;;;27.85;24.84
21109;BME280;10712;52.944;9.098;2023-04-21T12:20:15;101380.59;;;27.96;25.56
21109;BME280;10712;52.944;9.098;2023-04-21T12:22:42;101378.97;;;27.87;24.86
21109;BME280;10712;52.944;9.098;2023-04-21T12:25:08;101372.75;;;27.78;24.76
21109;BME280;10712;52.944;9.098;2023-04-21T12:27:34;101371.56;;;27.73;25.19
21109;BME280;10712;52.944;9.098;2023-04-21T12:30:00;101376.00;;;27.74;24.59
21109;BME280;10712;52.944;9.098;2023-04-21T12:32:26;101363.50;;;27.79;24.81
21109;BME280;10712;52.944;9.098;2023-04-21T12:34:51;101361.50;;;27.88;25.35
21109;BME280;10712;52.944;9.098;2023-04-21T12:37:18;101363.19;;;27.89;24.99
21109;BME280;10712;52.944;9.098;2023-04-21T12:39:44;101368.41;;;27.99;25.68
21109;BME280;10712;52.944;9.098;2023-04-21T12:42:09;101362.00;;;28.06;24.76
21109;BME280;10712;52.944;9.098;2023-04-21T12:44:37;101358.78;;;28.03;25.00
21109;BME280;10712;52.944;9.098;2023-04-21T12:47:03;101357.16;;;28.08;25.27
21109;BME280;10712;52.944;9.098;2023-04-21T12:49:29;101353.38;;;27.95;25.50
21109;BME280;10712;52.944;9.098;2023-04-21T12:51:55;101344.69;;;27.91;25.70
21109;BME280;10712;52.944;9.098;2023-04-21T12:54:20;101336.56;;;27.83;25.86
21109;BME280;10712;52.944;9.098;2023-04-21T12:56:46;101342.31;;;27.88;25.88
21109;BME280;10712;52.944;9.098;2023-04-21T12:59:12;101338.38;;;27.91;25.94
21109;BME280;10712;52.944;9.098;2023-04-21T13:01:39;101331.28;;;27.96;26.00
21109;BME280;10712;52.944;9.098;2023-04-21T13:04:06;101331.69;;;27.93;25.60
21109;BME280;10712;52.944;9.098;2023-04-21T13:06:32;101331.00;;;27.91;25.47